Wetterdaten: Woche 23.02.09 - 01.03.09 (KW9)
Datum Zeit Temperatur Luftfeuchte Luftdruck Niederschlag Wind Richtung Sonnenschein Solar Taupunkt Windchill Windben
23.02.2009 00:00 2.2 C 98 % 1023.0 hPa 0.0 l/m 3.7 km/h (1 Bft) S 0.00 h 0 W/m 1.9 C 1.6 C 6.8 km/h (2 Bft)
23.02.2009 01:00 2.3 C 97 % 1022.6 hPa 0.0 l/m 2.9 km/h (1 Bft) S 0.00 h 0 W/m 1.9 C 2.0 C 5.4 km/h (1 Bft)
23.02.2009 02:00 2.3 C 97 % 1022.0 hPa 0.0 l/m 1.6 km/h (1 Bft) S 0.00 h 0 W/m 1.9 C 2.3 C 3.6 km/h (1 Bft)
23.02.2009 03:00 2.2 C 97 % 1021.8 hPa 0.0 l/m 2.8 km/h (1 Bft) S-SO 0.00 h 0 W/m 1.8 C 2.0 C 4.5 km/h (1 Bft)
23.02.2009 04:00 2.2 C 97 % 1021.4 hPa 0.0 l/m 2.9 km/h (1 Bft) S-SO 0.00 h 0 W/m 1.8 C 1.7 C 4.9 km/h (1 Bft)
23.02.2009 05:00 2.2 C 97 % 1021.3 hPa 0.0 l/m 1.7 km/h (1 Bft) S 0.00 h 0 W/m 1.8 C 2.0 C 3.5 km/h (1 Bft)
23.02.2009 06:00 2.3 C 97 % 1020.8 hPa 0.0 l/m 3.2 km/h (1 Bft) O-SO 0.00 h 0 W/m 1.8 C 1.9 C 5.2 km/h (1 Bft)
23.02.2009 07:00 2.4 C 97 % 1020.6 hPa 0.0 l/m 3.2 km/h (1 Bft) S 0.00 h 16 W/m 2.0 C 2.1 C 6.0 km/h (2 Bft)
23.02.2009 08:00 3.0 C 97 % 1020.5 hPa 0.0 l/m 3.9 km/h (1 Bft) W-NW 0.00 h 32 W/m 2.6 C 2.5 C 7.0 km/h (2 Bft)
23.02.2009 09:00 3.5 C 94 % 1020.5 hPa 0.0 l/m 5.4 km/h (1 Bft) W 0.00 h 84 W/m 2.5 C 2.3 C 9.6 km/h (2 Bft)
23.02.2009 10:00 3.4 C 89 % 1020.6 hPa 0.0 l/m 2.4 km/h (1 Bft) SW 0.00 h 85 W/m 1.8 C 3.2 C 4.3 km/h (1 Bft)
23.02.2009 11:00 3.9 C 85 % 1020.7 hPa 0.0 l/m 4.3 km/h (1 Bft) W 0.00 h 158 W/m 1.6 C 3.0 C 7.2 km/h (2 Bft)
23.02.2009 12:00 4.5 C 82 % 1020.5 hPa 0.0 l/m 7.8 km/h (2 Bft) W-SW 0.07 h 244 W/m 1.7 C 2.7 C 12.4 km/h (3 Bft)
23.02.2009 13:00 4.6 C 81 % 1020.4 hPa 0.0 l/m 8.4 km/h (2 Bft) W 0.00 h 131 W/m 1.6 C 2.6 C 13.4 km/h (3 Bft)
23.02.2009 14:00 4.8 C 79 % 1020.1 hPa 0.0 l/m 7.5 km/h (2 Bft) W 0.00 h 109 W/m 1.5 C 3.1 C 12.0 km/h (2 Bft)
23.02.2009 15:00 4.9 C 77 % 1019.9 hPa 0.0 l/m 7.2 km/h (2 Bft) W 0.00 h 97 W/m 1.2 C 3.4 C 11.9 km/h (2 Bft)
23.02.2009 16:00 4.8 C 76 % 1019.5 hPa 0.0 l/m 3.4 km/h (1 Bft) W-SW 0.00 h 51 W/m 1.0 C 4.5 C 6.1 km/h (2 Bft)
23.02.2009 17:00 4.6 C 79 % 1019.3 hPa 0.0 l/m 2.0 km/h (1 Bft) W 0.00 h 12 W/m 1.2 C 4.4 C 4.2 km/h (1 Bft)
23.02.2009 18:00 4.1 C 82 % 1019.4 hPa 0.0 l/m 2.4 km/h (1 Bft) S 0.00 h 0 W/m 1.3 C 3.8 C 4.8 km/h (1 Bft)
23.02.2009 19:00 3.7 C 85 % 1019.6 hPa 0.0 l/m 3.4 km/h (1 Bft) SW 0.00 h 0 W/m 1.5 C 3.2 C 6.1 km/h (2 Bft)
23.02.2009 20:00 3.4 C 87 % 1019.5 hPa 0.0 l/m 1.9 km/h (1 Bft) S 0.00 h 0 W/m 1.5 C 3.4 C 4.1 km/h (1 Bft)
23.02.2009 21:00 3.4 C 88 % 1019.6 hPa 0.0 l/m 1.3 km/h (1 Bft) S-SW 0.00 h 0 W/m 1.6 C 3.4 C 3.1 km/h (1 Bft)
23.02.2009 22:00 3.3 C 89 % 1019.7 hPa 0.0 l/m 0.9 km/h (0 Bft) S-SO 0.00 h 0 W/m 1.7 C 3.3 C 2.4 km/h (1 Bft)
23.02.2009 23:00 3.2 C 91 % 1019.6 hPa 0.0 l/m 3.5 km/h (1 Bft) W 0.00 h 0 W/m 1.8 C 2.6 C 6.6 km/h (2 Bft)
24.02.2009 00:00 2.9 C 91 % 1019.6 hPa 0.4 l/m 3.2 km/h (1 Bft) O-SO 0.00 h 0 W/m 1.5 C 2.4 C 5.7 km/h (1 Bft)
24.02.2009 01:00 1.6 C 92 % 1019.8 hPa 0.0 l/m 4.7 km/h (1 Bft) O-SO 0.00 h 0 W/m 0.5 C 0.4 C 6.2 km/h (2 Bft)
24.02.2009 02:00 1.4 C 94 % 1019.6 hPa 0.0 l/m 2.5 km/h (1 Bft) O-SO 0.00 h 0 W/m 0.6 C 1.0 C 4.1 km/h (1 Bft)
24.02.2009 03:00 1.5 C 96 % 1019.7 hPa 0.0 l/m 2.8 km/h (1 Bft) O 0.00 h 0 W/m 0.9 C 1.3 C 4.3 km/h (1 Bft)
24.02.2009 04:00 1.5 C 96 % 1020.0 hPa 0.0 l/m 0.8 km/h (0 Bft) O 0.00 h 0 W/m 0.9 C 1.5 C 1.9 km/h (1 Bft)
24.02.2009 05:00 1.5 C 97 % 1020.5 hPa 0.0 l/m 0.5 km/h (0 Bft) O 0.00 h 0 W/m 1.1 C 1.5 C 1.0 km/h (0 Bft)
24.02.2009 06:00 1.5 C 97 % 1021.0 hPa 0.0 l/m 0.3 km/h (0 Bft) O 0.00 h 0 W/m 1.0 C 1.5 C 1.0 km/h (0 Bft)
24.02.2009 07:00 1.4 C 97 % 1021.5 hPa 0.0 l/m 0.4 km/h (0 Bft) O 0.00 h 14 W/m 1.0 C 1.4 C 0.8 km/h (0 Bft)
24.02.2009 08:00 1.7 C 97 % 1022.1 hPa 0.0 l/m 0.8 km/h (0 Bft) O 0.00 h 59 W/m 1.3 C 1.7 C 1.7 km/h (1 Bft)
24.02.2009 09:00 2.5 C 96 % 1022.6 hPa 0.0 l/m 0.1 km/h (0 Bft) O 0.08 h 135 W/m 1.9 C 2.5 C 0.8 km/h (0 Bft)
24.02.2009 10:00 3.6 C 91 % 1022.9 hPa 0.0 l/m 1.2 km/h (1 Bft) N 0.00 h 134 W/m 2.2 C 3.5 C 2.6 km/h (1 Bft)
24.02.2009 11:00 4.4 C 85 % 1023.4 hPa 0.0 l/m 0.8 km/h (0 Bft) N-NW 0.32 h 235 W/m 2.0 C 4.4 C 2.2 km/h (1 Bft)
24.02.2009 12:00 5.2 C 80 % 1023.6 hPa 0.0 l/m 2.4 km/h (1 Bft) N-NW 0.13 h 259 W/m 2.0 C 5.1 C 4.4 km/h (1 Bft)
24.02.2009 13:00 5.8 C 74 % 1023.6 hPa 0.0 l/m 2.4 km/h (1 Bft) N-NW 0.58 h 286 W/m 1.5 C 5.7 C 4.4 km/h (1 Bft)
24.02.2009 14:00 5.6 C 73 % 1023.7 hPa 0.0 l/m 4.3 km/h (1 Bft) N-NW 0.02 h 84 W/m 1.1 C 4.9 C 7.3 km/h (2 Bft)
24.02.2009 15:00 5.5 C 67 % 1024.1 hPa 0.0 l/m 3.9 km/h (1 Bft) N 0.00 h 97 W/m -0.2 C 5.0 C 7.2 km/h (2 Bft)
24.02.2009 16:00 5.2 C 67 % 1024.4 hPa 0.0 l/m 4.5 km/h (1 Bft) N-NW 0.00 h 41 W/m -0.5 C 4.6 C 8.4 km/h (2 Bft)
24.02.2009 17:00 4.8 C 66 % 1024.8 hPa 0.0 l/m 1.5 km/h (1 Bft) N-NO 0.00 h 15 W/m -0.9 C 4.8 C 3.7 km/h (1 Bft)
24.02.2009 18:00 4.0 C 71 % 1025.7 hPa 0.0 l/m 3.0 km/h (1 Bft) N-NO 0.00 h 0 W/m -0.8 C 3.6 C 6.8 km/h (2 Bft)
24.02.2009 19:00 3.3 C 74 % 1026.3 hPa 0.0 l/m 1.2 km/h (1 Bft) NO 0.00 h 0 W/m -0.8 C 3.3 C 3.2 km/h (1 Bft)
24.02.2009 20:00 3.1 C 76 % 1026.4 hPa 0.0 l/m 1.0 km/h (0 Bft) O-NO 0.00 h 0 W/m -0.7 C 3.1 C 2.4 km/h (1 Bft)
24.02.2009 21:00 2.7 C 78 % 1026.7 hPa 0.0 l/m 0.3 km/h (0 Bft) S-SO 0.00 h 0 W/m -0.7 C 2.7 C 1.1 km/h (1 Bft)
24.02.2009 22:00 2.6 C 78 % 1027.0 hPa 0.0 l/m 0.3 km/h (0 Bft) O-NO 0.00 h 0 W/m -0.8 C 2.6 C 1.3 km/h (1 Bft)
24.02.2009 23:00 2.2 C 80 % 1027.3 hPa 0.0 l/m 0.1 km/h (0 Bft) O-NO 0.00 h 0 W/m -0.9 C 2.2 C 0.4 km/h (0 Bft)
25.02.2009 00:00 2.0 C 82 % 1027.5 hPa 0.0 l/m 0.4 km/h (0 Bft) N 0.00 h 0 W/m -0.8 C 2.0 C 1.2 km/h (1 Bft)
25.02.2009 01:00 1.5 C 83 % 1027.6 hPa 0.0 l/m 1.1 km/h (1 Bft) O-SO 0.00 h 0 W/m -1.1 C 1.5 C 2.3 km/h (1 Bft)
25.02.2009 02:00 1.3 C 84 % 1027.9 hPa 0.0 l/m 0.7 km/h (0 Bft) O-NO 0.00 h 0 W/m -1.1 C 1.3 C 1.9 km/h (1 Bft)
25.02.2009 03:00 0.9 C 85 % 1027.8 hPa 0.0 l/m 0.4 km/h (0 Bft) O 0.00 h 0 W/m -1.3 C 0.9 C 1.6 km/h (1 Bft)
25.02.2009 04:00 0.9 C 85 % 1027.9 hPa 0.0 l/m 0.1 km/h (0 Bft) O-NO 0.00 h 0 W/m -1.3 C 0.9 C 0.4 km/h (0 Bft)
25.02.2009 05:00 0.7 C 86 % 1028.0 hPa 0.0 l/m 0.1 km/h (0 Bft) O-NO 0.00 h 0 W/m -1.4 C 0.7 C 0.4 km/h (0 Bft)
25.02.2009 06:00 0.7 C 87 % 1028.6 hPa 0.0 l/m 0.9 km/h (0 Bft) O-NO 0.00 h 0 W/m -1.2 C 0.7 C 2.3 km/h (1 Bft)
25.02.2009 07:00 1.1 C 85 % 1029.0 hPa 0.0 l/m 1.2 km/h (1 Bft) NO 0.00 h 13 W/m -1.2 C 1.1 C 3.4 km/h (1 Bft)
25.02.2009 08:00 1.4 C 82 % 1029.5 hPa 0.0 l/m 1.1 km/h (1 Bft) O-NO 0.00 h 51 W/m -1.3 C 1.3 C 2.9 km/h (1 Bft)
25.02.2009 09:00 2.1 C 78 % 1029.9 hPa 0.0 l/m 4.4 km/h (1 Bft) O-SO 0.00 h 115 W/m -1.3 C 1.1 C 7.3 km/h (2 Bft)
25.02.2009 10:00 2.5 C 74 % 1030.2 hPa 0.0 l/m 6.5 km/h (2 Bft) O-SO 0.40 h 238 W/m -1.6 C 0.9 C 10.3 km/h (2 Bft)
25.02.2009 11:00 3.6 C 71 % 1030.4 hPa 0.0 l/m 6.4 km/h (2 Bft) SO 0.87 h 478 W/m -1.1 C 2.0 C 9.9 km/h (2 Bft)
25.02.2009 12:00 4.5 C 67 % 1030.4 hPa 0.0 l/m 3.8 km/h (1 Bft) SO 0.95 h 496 W/m -1.1 C 3.9 C 6.6 km/h (2 Bft)
25.02.2009 13:00 5.8 C 63 % 1029.8 hPa 0.0 l/m 3.4 km/h (1 Bft) SO 1.00 h 505 W/m -0.8 C 5.5 C 6.1 km/h (2 Bft)
25.02.2009 14:00 6.5 C 59 % 1029.4 hPa 0.0 l/m 2.8 km/h (1 Bft) SO 1.00 h 427 W/m -0.8 C 6.4 C 5.4 km/h (1 Bft)
25.02.2009 15:00 6.9 C 57 % 1029.0 hPa 0.0 l/m 3.0 km/h (1 Bft) W-SW 1.00 h 325 W/m -1.0 C 6.6 C 5.1 km/h (1 Bft)
25.02.2009 16:00 7.1 C 55 % 1029.0 hPa 0.0 l/m 2.5 km/h (1 Bft) W-SW 0.85 h 170 W/m -1.2 C 7.0 C 4.6 km/h (1 Bft)
25.02.2009 17:00 5.9 C 60 % 1029.0 hPa 0.0 l/m 1.1 km/h (1 Bft) W-SW 0.03 h 34 W/m -1.4 C 5.9 C 2.4 km/h (1 Bft)
25.02.2009 18:00 3.4 C 73 % 1029.5 hPa 0.0 l/m 3.1 km/h (1 Bft) S 0.00 h 5 W/m -1.1 C 3.3 C 4.3 km/h (1 Bft)
25.02.2009 19:00 2.8 C 73 % 1029.8 hPa 0.0 l/m 4.3 km/h (1 Bft) O 0.00 h 0 W/m -1.5 C 2.1 C 5.9 km/h (2 Bft)
25.02.2009 20:00 1.8 C 77 % 1029.7 hPa 0.0 l/m 3.3 km/h (1 Bft) O-SO 0.00 h 0 W/m -1.8 C 1.4 C 4.7 km/h (1 Bft)
25.02.2009 21:00 1.2 C 80 % 1029.8 hPa 0.0 l/m 2.0 km/h (1 Bft) O-SO 0.00 h 0 W/m -1.9 C 1.2 C 3.2 km/h (1 Bft)
25.02.2009 22:00 1.0 C 81 % 1029.8 hPa 0.0 l/m 2.8 km/h (1 Bft) O-SO 0.00 h 0 W/m -1.9 C 0.7 C 4.0 km/h (1 Bft)
25.02.2009 23:00 0.5 C 84 % 1029.7 hPa 0.0 l/m 3.2 km/h (1 Bft) O-SO 0.00 h 0 W/m -2.0 C 0.1 C 4.5 km/h (1 Bft)
26.02.2009 00:00 -0.3 C 87 % 1029.6 hPa 0.0 l/m 2.9 km/h (1 Bft) O-SO 0.00 h 0 W/m -2.2 C -0.7 C 4.2 km/h (1 Bft)
26.02.2009 01:00 -0.6 C 88 % 1029.1 hPa 0.0 l/m 0.3 km/h (0 Bft) O-SO 0.00 h 0 W/m -2.3 C -0.6 C 0.7 km/h (0 Bft)
26.02.2009 02:00 -0.9 C 90 % 1028.6 hPa 0.0 l/m 1.7 km/h (1 Bft) O-SO 0.00 h 0 W/m -2.3 C -1.0 C 2.8 km/h (1 Bft)
26.02.2009 03:00 -0.8 C 89 % 1028.1 hPa 0.0 l/m 0.6 km/h (0 Bft) S-SO 0.00 h 0 W/m -2.3 C -0.8 C 1.8 km/h (1 Bft)
26.02.2009 04:00 -0.8 C 89 % 1027.8 hPa 0.0 l/m 0.8 km/h (0 Bft) S-SO 0.00 h 0 W/m -2.4 C -0.8 C 1.8 km/h (1 Bft)
26.02.2009 05:00 -0.6 C 89 % 1027.9 hPa 0.0 l/m 0.7 km/h (0 Bft) S-SO 0.00 h 0 W/m -2.1 C -0.7 C 1.7 km/h (1 Bft)
26.02.2009 06:00 0.0 C 87 % 1027.5 hPa 0.0 l/m 1.5 km/h (1 Bft) S-SW 0.00 h 0 W/m -1.9 C 0.0 C 3.4 km/h (1 Bft)
26.02.2009 07:00 0.3 C 85 % 1027.1 hPa 0.0 l/m 2.3 km/h (1 Bft) S-SW 0.08 h 24 W/m -1.9 C 0.0 C 5.0 km/h (1 Bft)
26.02.2009 08:00 0.9 C 83 % 1026.9 hPa 0.0 l/m 3.2 km/h (1 Bft) S-SW 0.08 h 79 W/m -1.7 C 0.6 C 6.0 km/h (2 Bft)
26.02.2009 09:00 2.2 C 80 % 1026.4 hPa 0.0 l/m 3.0 km/h (1 Bft) S-SW 0.27 h 144 W/m -0.9 C 1.7 C 6.1 km/h (2 Bft)
26.02.2009 10:00 3.5 C 75 % 1026.0 hPa 0.0 l/m 6.2 km/h (2 Bft) S-SW 0.40 h 272 W/m -0.5 C 2.0 C 11.1 km/h (2 Bft)
26.02.2009 11:00 6.4 C 64 % 1025.7 hPa 0.0 l/m 9.5 km/h (2 Bft) W-SW 0.97 h 493 W/m 0.1 C 4.6 C 15.2 km/h (3 Bft)
26.02.2009 12:00 7.2 C 61 % 1025.4 hPa 0.0 l/m 11.1 km/h (2 Bft) W-SW 0.87 h 339 W/m 0.3 C 5.1 C 17.3 km/h (3 Bft)
26.02.2009 13:00 7.8 C 58 % 1024.9 hPa 0.0 l/m 11.3 km/h (2 Bft) W 0.53 h 278 W/m 0.0 C 5.9 C 17.7 km/h (3 Bft)
26.02.2009 14:00 7.7 C 57 % 1024.3 hPa 0.0 l/m 10.8 km/h (2 Bft) W 0.00 h 189 W/m -0.3 C 5.8 C 17.1 km/h (3 Bft)
26.02.2009 15:00 7.5 C 59 % 1024.1 hPa 0.0 l/m 7.6 km/h (2 Bft) W 0.00 h 115 W/m -0.1 C 6.3 C 12.1 km/h (2 Bft)
26.02.2009 16:00 7.3 C 60 % 1023.8 hPa 0.0 l/m 5.9 km/h (2 Bft) W 0.00 h 44 W/m 0.1 C 6.5 C 8.8 km/h (2 Bft)
26.02.2009 17:00 6.8 C 62 % 1023.5 hPa 0.0 l/m 5.2 km/h (1 Bft) W-NW 0.00 h 11 W/m 0.0 C 6.1 C 8.2 km/h (2 Bft)
26.02.2009 18:00 6.3 C 65 % 1023.6 hPa 0.0 l/m 4.4 km/h (1 Bft) W-NW 0.00 h 0 W/m 0.2 C 5.8 C 7.4 km/h (2 Bft)
26.02.2009 19:00 5.8 C 68 % 1023.4 hPa 0.0 l/m 0.9 km/h (0 Bft) W-SW 0.00 h 0 W/m 0.4 C 5.8 C 2.6 km/h (1 Bft)
26.02.2009 20:00 5.6 C 69 % 1023.3 hPa 0.0 l/m 4.2 km/h (1 Bft) SW 0.00 h 0 W/m 0.4 C 5.1 C 6.8 km/h (2 Bft)
26.02.2009 21:00 5.4 C 71 % 1022.7 hPa 0.0 l/m 4.8 km/h (1 Bft) W-SW 0.00 h 0 W/m 0.6 C 4.8 C 7.9 km/h (2 Bft)
26.02.2009 22:00 5.1 C 75 % 1022.5 hPa 0.0 l/m 3.6 km/h (1 Bft) W-SW 0.00 h 0 W/m 1.0 C 4.7 C 5.8 km/h (2 Bft)
26.02.2009 23:00 4.6 C 80 % 1022.3 hPa 0.0 l/m 2.1 km/h (1 Bft) S-SW 0.00 h 0 W/m 1.4 C 4.5 C 4.3 km/h (1 Bft)
27.02.2009 00:00 4.9 C 76 % 1022.0 hPa 0.0 l/m 8.6 km/h (2 Bft) W 0.00 h 0 W/m 1.0 C 3.0 C 13.3 km/h (3 Bft)
27.02.2009 01:00 5.3 C 73 % 1021.9 hPa 0.0 l/m 11.2 km/h (2 Bft) W 0.00 h 0 W/m 0.9 C 2.8 C 17.4 km/h (3 Bft)
27.02.2009 02:00 5.3 C 73 % 1021.3 hPa 0.0 l/m 9.6 km/h (2 Bft) W 0.00 h 0 W/m 0.9 C 3.3 C 15.1 km/h (3 Bft)
27.02.2009 03:00 5.3 C 74 % 1021.3 hPa 0.0 l/m 11.3 km/h (2 Bft) W 0.00 h 0 W/m 1.1 C 2.8 C 17.6 km/h (3 Bft)
27.02.2009 04:00 5.0 C 77 % 1021.4 hPa 0.0 l/m 10.2 km/h (2 Bft) W 0.00 h 0 W/m 1.3 C 2.7 C 16.4 km/h (3 Bft)
27.02.2009 05:00 4.9 C 79 % 1021.7 hPa 0.0 l/m 4.4 km/h (1 Bft) W-SW 0.00 h 0 W/m 1.5 C 4.2 C 7.3 km/h (2 Bft)
27.02.2009 06:00 4.9 C 80 % 1022.0 hPa 0.0 l/m 4.3 km/h (1 Bft) W-SW 0.00 h 0 W/m 1.7 C 4.4 C 7.2 km/h (2 Bft)
27.02.2009 07:00 4.9 C 80 % 1022.5 hPa 0.0 l/m 4.6 km/h (1 Bft) SW 0.00 h 7 W/m 1.7 C 4.3 C 7.5 km/h (2 Bft)
27.02.2009 08:00 5.2 C 78 % 1023.1 hPa 0.0 l/m 2.9 km/h (1 Bft) W-SW 0.00 h 28 W/m 1.7 C 4.9 C 4.9 km/h (1 Bft)
27.02.2009 09:00 5.4 C 78 % 1023.1 hPa 0.0 l/m 2.8 km/h (1 Bft) W 0.00 h 55 W/m 1.9 C 5.1 C 4.5 km/h (1 Bft)
27.02.2009 10:00 5.8 C 78 % 1023.1 hPa 0.0 l/m 4.4 km/h (1 Bft) W-SW 0.00 h 80 W/m 2.2 C 5.2 C 7.1 km/h (2 Bft)
27.02.2009 11:00 6.4 C 75 % 1023.2 hPa 0.0 l/m 7.7 km/h (2 Bft) W 0.03 h 182 W/m 2.2 C 5.0 C 11.8 km/h (2 Bft)
27.02.2009 12:00 7.2 C 70 % 1022.7 hPa 0.0 l/m 10.3 km/h (2 Bft) W 0.43 h 317 W/m 2.1 C 5.3 C 16.0 km/h (3 Bft)
27.02.2009 13:00 8.2 C 67 % 1021.7 hPa 0.0 l/m 9.1 km/h (2 Bft) W 0.60 h 331 W/m 2.4 C 6.7 C 13.8 km/h (3 Bft)
27.02.2009 14:00 9.2 C 63 % 1021.3 hPa 0.0 l/m 7.3 km/h (2 Bft) W-SW 0.82 h 320 W/m 2.5 C 8.2 C 11.0 km/h (2 Bft)
27.02.2009 15:00 9.8 C 59 % 1021.1 hPa 0.0 l/m 7.5 km/h (2 Bft) W-NW 0.85 h 286 W/m 2.3 C 9.1 C 11.3 km/h (2 Bft)
27.02.2009 16:00 10.3 C 58 % 1020.9 hPa 0.0 l/m 6.1 km/h (2 Bft) W-NW 0.87 h 180 W/m 2.3 C 10.2 C 8.9 km/h (2 Bft)
27.02.2009 17:00 9.3 C 61 % 1020.9 hPa 0.0 l/m 4.9 km/h (1 Bft) W-NW 0.52 h 49 W/m 2.2 C 8.9 C 7.4 km/h (2 Bft)
27.02.2009 18:00 7.5 C 69 % 1021.6 hPa 0.0 l/m 1.5 km/h (1 Bft) NW 0.00 h 7 W/m 2.1 C 7.4 C 2.9 km/h (1 Bft)
27.02.2009 19:00 5.2 C 79 % 1022.1 hPa 0.0 l/m 4.8 km/h (1 Bft) SO 0.00 h 0 W/m 1.8 C 4.4 C 6.1 km/h (2 Bft)
27.02.2009 20:00 3.9 C 83 % 1021.9 hPa 0.0 l/m 5.3 km/h (1 Bft) O-SO 0.00 h 0 W/m 1.4 C 2.8 C 7.0 km/h (2 Bft)
27.02.2009 21:00 2.8 C 87 % 1022.1 hPa 0.0 l/m 2.0 km/h (1 Bft) O-SO 0.00 h 0 W/m 0.8 C 2.5 C 3.1 km/h (1 Bft)
27.02.2009 22:00 1.8 C 90 % 1022.2 hPa 0.0 l/m 1.2 km/h (1 Bft) O-SO 0.00 h 0 W/m 0.3 C 1.8 C 1.8 km/h (1 Bft)
27.02.2009 23:00 1.1 C 91 % 1021.6 hPa 0.0 l/m 2.0 km/h (1 Bft) O-SO 0.00 h 0 W/m -0.1 C 0.9 C 3.1 km/h (1 Bft)
28.02.2009 00:00 0.6 C 93 % 1021.2 hPa 0.0 l/m 0.6 km/h (0 Bft) O-SO 0.00 h 0 W/m -0.4 C 0.6 C 1.1 km/h (1 Bft)
28.02.2009 01:00 0.1 C 93 % 1021.2 hPa 0.0 l/m 0.8 km/h (0 Bft) O-SO 0.00 h 0 W/m -0.8 C 0.1 C 1.2 km/h (1 Bft)
28.02.2009 02:00 -0.2 C 94 % 1020.8 hPa 0.0 l/m 1.4 km/h (1 Bft) O 0.00 h 0 W/m -0.9 C -0.4 C 1.9 km/h (1 Bft)
28.02.2009 03:00 -0.5 C 95 % 1020.3 hPa 0.0 l/m 0.7 km/h (0 Bft) O 0.00 h 0 W/m -1.2 C -0.5 C 1.6 km/h (1 Bft)
28.02.2009 04:00 -0.9 C 96 % 1020.1 hPa 0.0 l/m 0.2 km/h (0 Bft) O 0.00 h 0 W/m -1.5 C -0.9 C 0.6 km/h (0 Bft)
28.02.2009 05:00 -1.1 C 97 % 1019.7 hPa 0.0 l/m 0.2 km/h (0 Bft) O 0.00 h 0 W/m -1.5 C -1.1 C 0.4 km/h (0 Bft)
28.02.2009 06:00 -1.2 C 97 % 1019.5 hPa 0.0 l/m 0.6 km/h (0 Bft) O 0.00 h 0 W/m -1.7 C -1.2 C 0.9 km/h (0 Bft)
28.02.2009 07:00 -1.3 C 97 % 1019.7 hPa 0.0 l/m 1.6 km/h (1 Bft) O 0.03 h 26 W/m -1.7 C -1.4 C 2.5 km/h (1 Bft)
28.02.2009 08:00 -0.3 C 97 % 1019.4 hPa 0.0 l/m 0.2 km/h (0 Bft) O 0.97 h 137 W/m -0.7 C -0.3 C 0.7 km/h (0 Bft)
28.02.2009 09:00 2.1 C 90 % 1018.7 hPa 0.0 l/m 0.3 km/h (0 Bft) O 1.00 h 279 W/m 0.5 C 2.1 C 1.4 km/h (1 Bft)
28.02.2009 10:00 4.6 C 79 % 1017.8 hPa 0.0 l/m 1.8 km/h (1 Bft) N 1.00 h 406 W/m 1.2 C 4.6 C 3.8 km/h (1 Bft)
28.02.2009 11:00 7.8 C 70 % 1017.0 hPa 0.0 l/m 2.5 km/h (1 Bft) N-NW 1.00 h 495 W/m 2.5 C 7.7 C 4.7 km/h (1 Bft)
28.02.2009 12:00 10.5 C 62 % 1016.5 hPa 0.0 l/m 3.4 km/h (1 Bft) W-SW 1.00 h 534 W/m 3.6 C 10.5 C 5.8 km/h (2 Bft)
28.02.2009 13:00 11.7 C 57 % 1015.4 hPa 0.0 l/m 3.5 km/h (1 Bft) S 1.00 h 520 W/m 3.6 C 11.7 C 6.0 km/h (2 Bft)
28.02.2009 14:00 12.3 C 54 % 1014.6 hPa 0.0 l/m 2.2 km/h (1 Bft) W 1.00 h 457 W/m 3.4 C 12.3 C 4.5 km/h (1 Bft)
28.02.2009 15:00 13.4 C 53 % 1013.8 hPa 0.0 l/m 2.2 km/h (1 Bft) SW 1.00 h 366 W/m 4.0 C 13.4 C 4.5 km/h (1 Bft)
28.02.2009 16:00 13.5 C 51 % 1013.4 hPa 0.0 l/m 1.5 km/h (1 Bft) S 1.00 h 219 W/m 3.7 C 13.5 C 3.7 km/h (1 Bft)
28.02.2009 17:00 12.9 C 52 % 1013.3 hPa 0.0 l/m 1.2 km/h (1 Bft) SW 0.63 h 63 W/m 3.1 C 12.9 C 3.0 km/h (1 Bft)
28.02.2009 18:00 10.9 C 58 % 1013.5 hPa 0.0 l/m 2.5 km/h (1 Bft) S-SO 0.02 h 9 W/m 3.0 C 10.9 C 3.9 km/h (1 Bft)
28.02.2009 19:00 8.4 C 71 % 1013.6 hPa 0.0 l/m 3.4 km/h (1 Bft) O-SO 0.00 h 0 W/m 3.3 C 8.1 C 5.1 km/h (1 Bft)
28.02.2009 20:00 6.4 C 77 % 1013.6 hPa 0.0 l/m 2.6 km/h (1 Bft) O-SO 0.00 h 0 W/m 2.6 C 6.1 C 3.7 km/h (1 Bft)
28.02.2009 21:00 4.9 C 82 % 1013.5 hPa 0.0 l/m 2.3 km/h (1 Bft) O-SO 0.00 h 0 W/m 2.0 C 4.7 C 3.4 km/h (1 Bft)
28.02.2009 22:00 3.9 C 83 % 1012.9 hPa 0.0 l/m 1.4 km/h (1 Bft) O-SO 0.00 h 0 W/m 1.3 C 3.9 C 2.3 km/h (1 Bft)
28.02.2009 23:00 2.9 C 86 % 1012.7 hPa 0.0 l/m 0.8 km/h (0 Bft) O-SO 0.00 h 0 W/m 0.8 C 2.9 C 1.6 km/h (1 Bft)
01.03.2009 00:00 1.7 C 88 % 1012.9 hPa 0.0 l/m 2.5 km/h (1 Bft) O-SO 0.00 h 0 W/m -0.0 C 1.6 C 3.6 km/h (1 Bft)
01.03.2009 01:00 1.2 C 90 % 1012.8 hPa 0.0 l/m 1.2 km/h (1 Bft) O 0.00 h 0 W/m -0.2 C 1.2 C 1.9 km/h (1 Bft)
01.03.2009 02:00 1.0 C 91 % 1013.1 hPa 0.0 l/m 2.2 km/h (1 Bft) O 0.00 h 0 W/m -0.2 C 0.8 C 3.5 km/h (1 Bft)
01.03.2009 03:00 0.7 C 91 % 1012.6 hPa 0.0 l/m 0.3 km/h (0 Bft) O 0.00 h 0 W/m -0.6 C 0.7 C 0.6 km/h (0 Bft)
01.03.2009 04:00 -0.0 C 92 % 1012.5 hPa 0.0 l/m 1.1 km/h (0 Bft) O 0.00 h 0 W/m -1.1 C -0.1 C 1.8 km/h (1 Bft)
01.03.2009 05:00 -0.2 C 93 % 1012.5 hPa 0.0 l/m 2.3 km/h (1 Bft) O 0.00 h 0 W/m -1.1 C -0.6 C 3.4 km/h (1 Bft)
01.03.2009 06:00 -0.4 C 94 % 1012.9 hPa 0.0 l/m 1.6 km/h (1 Bft) O 0.00 h 0 W/m -1.2 C -0.5 C 2.6 km/h (1 Bft)
01.03.2009 07:00 -0.5 C 95 % 1013.0 hPa 0.0 l/m 1.8 km/h (1 Bft) O 0.10 h 33 W/m -1.3 C -0.8 C 2.6 km/h (1 Bft)
01.03.2009 08:00 0.2 C 96 % 1013.7 hPa 0.0 l/m 0.0 km/h (0 Bft) O 0.48 h 117 W/m -0.3 C 0.2 C 0.3 km/h (0 Bft)
01.03.2009 09:00 2.1 C 95 % 1013.7 hPa 0.0 l/m 0.2 km/h (0 Bft) O 0.10 h 161 W/m 1.3 C 2.1 C 0.7 km/h (0 Bft)
01.03.2009 10:00 3.8 C 89 % 1013.6 hPa 0.0 l/m 0.6 km/h (0 Bft) O 0.00 h 184 W/m 2.1 C 3.8 C 1.5 km/h (1 Bft)
01.03.2009 11:00 5.3 C 82 % 1013.5 hPa 0.0 l/m 2.3 km/h (1 Bft) O 0.00 h 226 W/m 2.4 C 5.2 C 4.3 km/h (1 Bft)
01.03.2009 12:00 7.3 C 74 % 1013.3 hPa 0.0 l/m 1.6 km/h (1 Bft) O-SO 0.00 h 242 W/m 3.0 C 7.3 C 3.4 km/h (1 Bft)
01.03.2009 13:00 9.0 C 68 % 1012.5 hPa 0.0 l/m 2.9 km/h (1 Bft) S-SO 0.07 h 241 W/m 3.5 C 8.9 C 6.1 km/h (2 Bft)
01.03.2009 14:00 10.6 C 64 % 1011.9 hPa 0.0 l/m 2.0 km/h (1 Bft) S-SO 0.15 h 202 W/m 4.1 C 10.5 C 4.6 km/h (1 Bft)
01.03.2009 15:00 10.9 C 62 % 1011.8 hPa 0.0 l/m 1.2 km/h (1 Bft) S-SO 0.00 h 124 W/m 4.0 C 10.9 C 3.1 km/h (1 Bft)
01.03.2009 16:00 11.1 C 62 % 1011.8 hPa 0.0 l/m 0.2 km/h (0 Bft) S-SO 0.00 h 89 W/m 4.2 C 11.1 C 1.1 km/h (1 Bft)
01.03.2009 17:00 10.5 C 64 % 1011.9 hPa 0.0 l/m 1.0 km/h (0 Bft) S-SO 0.00 h 21 W/m 4.1 C 10.5 C 2.3 km/h (1 Bft)
01.03.2009 18:00 9.5 C 68 % 1012.3 hPa 0.0 l/m 3.9 km/h (1 Bft) S-SO 0.00 h 5 W/m 3.9 C 9.4 C 5.8 km/h (2 Bft)
01.03.2009 19:00 8.2 C 73 % 1012.8 hPa 0.0 l/m 3.0 km/h (1 Bft) O-SO 0.00 h 0 W/m 3.7 C 8.2 C 4.3 km/h (1 Bft)
01.03.2009 20:00 7.3 C 76 % 1013.0 hPa 0.0 l/m 2.9 km/h (1 Bft) O-SO 0.00 h 0 W/m 3.4 C 7.2 C 4.0 km/h (1 Bft)
01.03.2009 21:00 6.8 C 78 % 1013.1 hPa 0.0 l/m 3.6 km/h (1 Bft) O-SO 0.00 h 0 W/m 3.2 C 6.4 C 4.7 km/h (1 Bft)
01.03.2009 22:00 6.2 C 81 % 1013.3 hPa 0.0 l/m 2.5 km/h (1 Bft) O-SO 0.00 h 0 W/m 3.2 C 6.1 C 3.8 km/h (1 Bft)
01.03.2009 23:00 6.1 C 83 % 1012.9 hPa 0.0 l/m 1.4 km/h (1 Bft) O-SO 0.00 h 0 W/m 3.4 C 6.1 C 2.5 km/h (1 Bft)
Min-Datum _ 28.02.09 28.02.09 01.03.09 - 23.02.09 - - - 26.02.09 28.02.09 23.02.09
_ Min-Zeit 07:00 15:52 15:00 - 00:01 - - - 03:42 07:12 01:27
Minimum _ -1.7 C 49 % 1011.7 hPa - 0.0 km/h (0 Bft) - - - -2.8 C -3.3 C 0.0 km/h (0 Bft)
Max-Datum _ 28.02.09 23.02.09 25.02.09 24.02.09 26.02.09 - 23.02.09 25.02.09 28.02.09 28.02.09 26.02.09
_ Max-Zeit 15:56 00:00 11:45 00:29 13:55 - 12:39 11:18 15:39 15:56 13:55
Maximum _ 14.1 C 98 % 1030.6 hPa 0.4 l/m 20.9 km/h
W (4 Bft)
- 0.02 h 670 W/m 4.9 C 14.2 C 33.0 km/h
W (5 Bft)
Durchschnitt _ 4.1 C 80 % 1021.4 hPa #0.4 l/m 3.1 km/h (1 Bft) O-SO #25:10 h 176 W/m 0.7 C 3.7 C 5.2 km/h (1 Bft)
© Kaiko 2009